메인 페이지
METAR-TAF:

METAR-TAF

공항 :

Elmira / 코닝, 뉴욕, 미국

위도: 42-09-23N, 경도: 076-54-10W, 고도: 291m

현재 날씨관측

예보는 18분 전, 02:19시(UTC)에 발표되었습니다.
동북동3kt
온도 13°C
습도 100%
기압 1000 hPa
시정: 16.1km
고도 400ft 상공 구름 보통
고도 1100ft 상공 구름 많음
고도 9000ft 상공 흐림

METAR: KELM 120219Z 06003KT 10SM SCT004 BKN011 OVC090 13/13 A2954 RMK AO2 RAB0155E18 P0001 T01330128 $

시각: 22:37 (02:37 UTC)

예보

예보는 34분 전, 02:03시(UTC)에 발표되었습니다.
예보 대상 시간: 12일 02시부터 12일 24시까지 (UTC)
동남동7kt
시정: 10km
고도 4500ft 상공 흐림
일시적
12일 02시부터 12일 03시까지 (UTC)
시정: 6.4km
고도 2500ft 상공 흐림
약한소나기
12일 0300시부터 (UTC)
남동6kt
시정: 4.8km
고도 800ft 상공 흐림
약한소나기
12일 1200시부터 (UTC)
남동6kt, 순간 최대 풍속 11kt
시정: 6.4km
고도 800ft 상공 흐림
약한소나기, 박무

TAF: KELM 120203Z 1202/1224 11007KT P6SM OVC045 TEMPO 1202/1203 4SM -SHRA OVC025 FM120300 13006KT 3SM -SHRA OVC008 FM121200 13006G11KT 4SM -SHRA BR OVC008

4,000개 이상의 공항 관측 자료 및 예보 (METAR 및 TAF 보고).

지도상에서 검색 가능한 기상관측소가 노란 점과 빨간 점으로 표시되어 있습니다.

기상관측소 명을 보려면 표시 위로 마우스를 이동하세요.

날씨 관측과 예보를 보려면 클릭하세요.

지도 변경 : 확대하려면 엑스 표시가 있는 녹색 버튼, 축소하려면 빼기 표시가 있는 녹색 버튼, 다음 페이지의 지도를 보려면 녹색 화살표를 클릭하세요.


METAR-TAF: